Shorterville, Alabama
Current Conditions -  °F | °C
As of 3:35 PM on Wednesday 26 Nov 2014 (Local Time) from KBIJ Reporting Station
Clear Clear  
Wind Chill: 63°   Ceiling: Unl
Heat Index: 63°   Visibility: 10mi
Dew Point: 30°   Wind: 7mph
Humidity: 30%   Direction: 270°W
Pressure: 30.15"   Gusts: NA
Location:  31.57°N, 85.1°W
Report Text: KBIJ 262135Z AUTO 27006KT 10SM CLR 17/M01 A3015 RMK AO2
Loading
Personal Weather Stations






























Interactive Weather Map New forecast layout! Learn more

10-Day Weather Forecast

Advertisements
Track Severe Weather on mobile